createdAt,value
2017-11-30T08:53:08.919Z,4.92
2017-11-30T08:54:08.937Z,5.04
2017-11-30T08:56:01.161Z,5.10
2017-11-30T08:57:01.103Z,5.08
2017-11-30T08:58:54.251Z,5.13
2017-11-30T08:59:54.275Z,5.12
2017-11-30T09:01:47.423Z,5.10
2017-11-30T09:02:47.418Z,5.05
2017-11-30T09:04:40.591Z,5.07
2017-11-30T09:05:40.586Z,5.05
2017-11-30T09:07:33.746Z,5.16
2017-11-30T09:08:33.764Z,5.18
2017-11-30T09:10:26.913Z,5.34
2017-11-30T09:11:26.918Z,5.36
2017-11-30T09:13:20.098Z,5.51
2017-11-30T09:14:20.076Z,5.47
2017-11-30T09:16:13.225Z,5.55
2017-11-30T09:17:13.267Z,5.44
2017-11-30T09:19:21.739Z,5.43
2017-11-30T09:20:21.720Z,5.54
2017-11-30T09:22:13.874Z,5.54
2017-11-30T09:23:13.893Z,5.58
2017-11-30T09:25:07.052Z,5.91
2017-11-30T09:26:07.050Z,5.91
2017-11-30T09:28:00.199Z,6.13
2017-11-30T09:29:00.212Z,6.10
2017-11-30T09:30:53.385Z,6.10
2017-11-30T09:31:53.373Z,6.10
2017-11-30T09:33:46.518Z,5.99
2017-11-30T09:34:46.532Z,5.83
2017-11-30T09:36:39.692Z,5.90
2017-11-30T09:37:39.691Z,5.98
2017-11-30T09:39:32.845Z,5.97
2017-11-30T09:40:32.845Z,6.01
2017-11-30T09:42:26.055Z,5.81
2017-11-30T09:43:26.048Z,5.83
2017-11-30T09:45:19.202Z,5.73
2017-11-30T09:46:19.211Z,5.79
2017-11-30T09:48:12.388Z,5.74
2017-11-30T09:49:12.364Z,5.72
2017-11-30T09:51:05.504Z,5.70
2017-11-30T09:52:05.514Z,5.67
2017-11-30T09:53:58.678Z,5.69
2017-11-30T09:54:58.672Z,5.61
2017-11-30T09:57:08.189Z,5.72
2017-11-30T09:58:08.206Z,5.74
2017-11-30T10:00:00.379Z,5.65
2017-11-30T10:01:00.389Z,5.76
2017-11-30T10:02:53.517Z,5.77
2017-11-30T10:03:53.523Z,5.87
2017-11-30T10:05:46.669Z,5.84
2017-11-30T10:06:46.674Z,5.80
2017-11-30T10:09:03.847Z,5.94
2017-11-30T10:10:03.849Z,5.92
2017-11-30T10:11:56.069Z,6.16
2017-11-30T10:12:56.077Z,6.06
2017-11-30T10:14:49.226Z,5.95
2017-11-30T10:15:49.211Z,5.92
2017-11-30T10:17:42.382Z,5.79
2017-11-30T10:18:42.400Z,5.83
2017-11-30T10:20:35.546Z,5.84
2017-11-30T10:21:35.547Z,5.94
2017-11-30T10:23:28.731Z,6.01
2017-11-30T10:24:28.721Z,6.06
2017-11-30T10:26:21.917Z,6.07
2017-11-30T10:27:21.912Z,6.28
2017-11-30T10:29:15.075Z,6.38
2017-11-30T10:30:15.098Z,6.46
2017-11-30T10:32:08.243Z,6.68
2017-11-30T10:33:08.261Z,6.70
2017-11-30T10:35:00.402Z,6.92
2017-11-30T10:36:01.123Z,6.96
2017-11-30T10:37:52.764Z,6.95
2017-11-30T10:38:52.615Z,7.07
2017-11-30T10:40:45.777Z,6.78
2017-11-30T10:41:45.773Z,6.72
2017-11-30T10:43:38.917Z,6.71
2017-11-30T10:44:38.935Z,6.71
2017-11-30T10:46:32.104Z,6.83
2017-11-30T10:47:32.091Z,6.85
2017-11-30T10:49:25.273Z,6.68
2017-11-30T10:50:25.258Z,6.90
2017-11-30T10:52:18.407Z,6.60
2017-11-30T10:53:18.420Z,6.68
2017-11-30T10:55:11.565Z,6.86
2017-11-30T10:56:11.584Z,6.85
2017-11-30T10:58:04.760Z,7.14
2017-11-30T10:59:04.775Z,7.13
2017-11-30T11:00:57.933Z,7.19
2017-11-30T11:01:57.924Z,7.19
2017-11-30T11:03:51.094Z,7.08
2017-11-30T11:04:51.099Z,7.23
2017-11-30T11:06:44.275Z,7.03
2017-11-30T11:07:44.271Z,7.10
2017-11-30T11:09:37.438Z,7.21
2017-11-30T11:10:37.413Z,7.25
2017-11-30T11:12:30.573Z,7.10
2017-11-30T11:13:30.578Z,7.07
2017-11-30T11:15:23.729Z,7.28
2017-11-30T11:16:23.760Z,7.33
2017-11-30T11:18:16.960Z,7.32
2017-11-30T11:19:16.953Z,7.32
2017-11-30T11:21:10.109Z,7.32
2017-11-30T11:22:10.124Z,7.22
2017-11-30T11:24:02.291Z,7.32
2017-11-30T11:25:02.319Z,7.44
2017-11-30T11:26:55.513Z,7.72
2017-11-30T11:27:55.510Z,7.61
2017-11-30T11:29:48.673Z,7.70
2017-11-30T11:30:48.680Z,7.53
2017-11-30T11:32:41.847Z,7.70
2017-11-30T11:33:41.850Z,7.91
2017-11-30T11:35:35.024Z,8.46
2017-11-30T11:36:35.019Z,8.68
2017-11-30T11:38:28.177Z,8.63
2017-11-30T11:39:28.182Z,8.66
2017-11-30T11:41:21.317Z,8.95
2017-11-30T11:42:21.340Z,9.33
2017-11-30T11:44:14.495Z,8.59
2017-11-30T11:45:14.494Z,8.61
2017-11-30T11:47:07.654Z,8.59
2017-11-30T11:48:07.657Z,8.68
2017-11-30T11:50:00.802Z,9.36
2017-11-30T11:51:00.817Z,8.99
2017-11-30T11:52:53.034Z,8.84
2017-11-30T11:53:53.027Z,8.52
2017-11-30T11:55:45.252Z,8.52
2017-11-30T11:56:45.263Z,8.38
2017-11-30T11:58:37.440Z,8.46
2017-11-30T11:59:37.447Z,8.53
2017-11-30T12:01:29.637Z,9.08
2017-11-30T12:02:29.658Z,9.18
2017-11-30T12:04:22.811Z,9.27
2017-11-30T12:05:22.808Z,9.47
2017-11-30T12:07:15.972Z,9.36
2017-11-30T12:08:15.982Z,9.15
2017-11-30T12:10:09.150Z,9.31
2017-11-30T12:11:09.158Z,9.64
2017-11-30T12:13:02.321Z,9.72
2017-11-30T12:14:02.334Z,10.82
2017-11-30T12:15:54.485Z,11.85
2017-11-30T12:16:54.506Z,11.16
2017-11-30T12:18:46.667Z,9.88
2017-11-30T12:19:46.689Z,9.47
2017-11-30T12:21:39.890Z,8.63
2017-11-30T12:22:39.894Z,8.52
2017-11-30T12:24:33.069Z,7.99
2017-11-30T12:25:33.086Z,7.93
2017-11-30T12:27:26.235Z,7.62
2017-11-30T12:28:26.252Z,7.66
2017-11-30T12:30:19.411Z,7.33
2017-11-30T12:31:19.410Z,7.36
2017-11-30T12:33:12.550Z,7.22
2017-11-30T12:34:12.564Z,7.36
2017-11-30T12:36:05.721Z,7.61
2017-11-30T12:37:05.725Z,7.85
2017-11-30T12:38:58.882Z,7.93
2017-11-30T12:39:58.894Z,8.09
2017-11-30T12:41:52.059Z,7.59
2017-11-30T12:42:52.054Z,7.37
2017-11-30T12:44:45.213Z,7.22
2017-11-30T12:45:45.215Z,7.11
2017-11-30T12:47:38.370Z,7.10
2017-11-30T12:48:38.376Z,7.10
2017-11-30T12:50:31.526Z,7.11
2017-11-30T12:51:31.541Z,7.03
2017-11-30T12:53:24.828Z,7.13
2017-11-30T12:54:24.694Z,7.10
2017-11-30T12:56:17.822Z,7.13
2017-11-30T12:57:17.852Z,7.26
2017-11-30T12:59:21.715Z,7.39
2017-11-30T13:00:21.722Z,7.44
2017-11-30T13:02:13.898Z,7.36
2017-11-30T13:03:13.916Z,7.50
2017-11-30T13:05:07.060Z,7.44
2017-11-30T13:06:07.058Z,7.41
2017-11-30T13:08:00.207Z,7.29
2017-11-30T13:09:00.228Z,7.33
2017-11-30T13:10:53.379Z,7.05
2017-11-30T13:11:53.383Z,7.11
2017-11-30T13:13:46.532Z,6.75
2017-11-30T13:14:46.530Z,6.80
2017-11-30T13:16:39.688Z,6.56
2017-11-30T13:17:39.690Z,6.67
2017-11-30T13:19:32.852Z,6.59
2017-11-30T13:20:32.859Z,6.64
2017-11-30T13:22:26.022Z,6.67
2017-11-30T13:23:26.023Z,6.64
2017-11-30T13:25:19.171Z,6.65
2017-11-30T13:26:19.179Z,6.56
2017-11-30T13:28:12.336Z,6.46
2017-11-30T13:29:12.335Z,6.43
2017-11-30T13:31:05.471Z,6.47
2017-11-30T13:32:05.497Z,6.46
2017-11-30T13:33:58.645Z,6.39
2017-11-30T13:34:58.653Z,6.25
2017-11-30T13:36:51.814Z,6.31
2017-11-30T13:37:51.815Z,6.25
2017-11-30T13:39:44.990Z,6.22
2017-11-30T13:40:44.978Z,6.20
2017-11-30T13:42:38.130Z,6.13
2017-11-30T13:43:38.151Z,6.31
2017-11-30T13:45:31.303Z,6.36
2017-11-30T13:46:31.307Z,6.39
2017-11-30T13:48:24.470Z,6.53
2017-11-30T13:49:24.471Z,6.29
2017-11-30T13:51:17.661Z,6.20
2017-11-30T13:52:17.666Z,6.25
2017-11-30T13:54:10.816Z,6.49
2017-11-30T13:55:10.831Z,6.54
2017-11-30T13:57:03.085Z,6.68
2017-11-30T13:58:03.091Z,6.60
2017-11-30T13:59:55.252Z,6.68
2017-11-30T14:00:55.262Z,6.62
2017-11-30T14:02:48.417Z,6.50
2017-11-30T14:03:48.419Z,6.57
2017-11-30T14:05:41.560Z,6.57
2017-11-30T14:06:41.571Z,6.46
2017-11-30T14:08:34.739Z,6.46
2017-11-30T14:09:34.740Z,6.36
2017-11-30T14:11:27.920Z,6.39
2017-11-30T14:12:27.925Z,6.43
2017-11-30T14:14:21.105Z,6.39
2017-11-30T14:15:21.097Z,6.32
2017-11-30T14:17:14.356Z,6.35
2017-11-30T14:18:14.350Z,6.20
2017-11-30T14:20:07.496Z,5.91
2017-11-30T14:21:07.512Z,5.81
2017-11-30T14:23:00.740Z,5.95
2017-11-30T14:24:00.681Z,5.99
2017-11-30T14:25:53.828Z,6.01
2017-11-30T14:26:53.842Z,6.06
2017-11-30T14:28:47.021Z,6.13
2017-11-30T14:29:47.010Z,6.10
2017-11-30T14:31:40.188Z,5.97
2017-11-30T14:32:40.164Z,6.02
2017-11-30T14:34:33.390Z,6.09
2017-11-30T14:35:33.349Z,6.15
2017-11-30T14:37:25.556Z,6.22
2017-11-30T14:38:25.542Z,6.22
2017-11-30T14:40:18.038Z,6.12
2017-11-30T14:41:17.735Z,6.19
2017-11-30T14:43:09.968Z,6.19
2017-11-30T14:44:09.960Z,6.09
2017-11-30T14:46:03.151Z,6.12
2017-11-30T14:47:03.156Z,6.19
2017-11-30T14:48:56.320Z,6.10
2017-11-30T14:49:56.329Z,6.01
2017-11-30T14:52:04.894Z,5.95
2017-11-30T14:53:04.982Z,5.97
2017-11-30T14:54:57.103Z,5.90
2017-11-30T14:55:57.088Z,5.74
2017-11-30T14:57:50.261Z,5.72
2017-11-30T14:58:50.272Z,5.69
2017-11-30T15:00:43.443Z,5.80
2017-11-30T15:01:43.423Z,5.88
2017-11-30T15:03:36.598Z,5.88
2017-11-30T15:04:36.580Z,5.87
2017-11-30T15:06:29.725Z,5.84
2017-11-30T15:07:29.742Z,5.81
2017-11-30T15:09:22.900Z,5.74
2017-11-30T15:10:22.960Z,5.74
2017-11-30T15:12:16.037Z,5.49
2017-11-30T15:13:16.043Z,5.40
2017-11-30T15:15:09.204Z,5.19
2017-11-30T15:16:09.193Z,5.19
2017-11-30T15:18:02.359Z,5.07
2017-11-30T15:19:02.370Z,5.12
2017-11-30T15:20:55.538Z,5.02
2017-11-30T15:21:55.523Z,4.98
2017-11-30T15:23:48.690Z,4.87
2017-11-30T15:24:48.683Z,4.83
2017-11-30T15:26:41.873Z,4.78
2017-11-30T15:27:41.850Z,4.71
2017-11-30T15:29:35.009Z,4.83
2017-11-30T15:30:35.006Z,4.79
2017-11-30T15:32:28.163Z,4.84
2017-11-30T15:33:28.205Z,4.71
2017-11-30T15:35:21.320Z,4.79
2017-11-30T15:36:21.327Z,4.84
2017-11-30T15:38:14.487Z,4.98
2017-11-30T15:39:14.494Z,4.98
2017-11-30T15:41:07.643Z,5.12
2017-11-30T15:42:07.647Z,5.23
2017-11-30T15:44:00.803Z,5.28
2017-11-30T15:45:00.810Z,5.36
2017-11-30T15:46:54.136Z,5.29
2017-11-30T15:47:54.134Z,5.37
2017-11-30T15:50:03.674Z,5.44
2017-11-30T15:51:03.682Z,5.36
2017-11-30T15:52:55.916Z,5.46
2017-11-30T15:53:55.923Z,5.47
2017-11-30T15:55:49.074Z,5.46
2017-11-30T15:56:49.111Z,5.44
2017-11-30T15:58:58.614Z,5.46
2017-11-30T15:59:58.617Z,5.54
2017-11-30T16:01:50.837Z,5.44
2017-11-30T16:02:50.861Z,5.40
2017-11-30T16:04:43.136Z,5.40
2017-11-30T16:05:43.041Z,5.28
2017-11-30T16:07:53.566Z,5.38
2017-11-30T16:08:53.565Z,5.36
2017-11-30T16:10:45.793Z,5.29
2017-11-30T16:11:45.784Z,5.20
2017-11-30T16:13:37.951Z,5.28
2017-11-30T16:14:37.952Z,5.28
2017-11-30T16:16:30.142Z,5.34
2017-11-30T16:17:30.151Z,5.43
2017-11-30T16:19:23.313Z,5.43
2017-11-30T16:20:23.311Z,5.41
2017-11-30T16:22:16.456Z,5.29
2017-11-30T16:23:16.478Z,5.29
2017-11-30T16:25:09.623Z,5.36
2017-11-30T16:26:09.629Z,5.41
2017-11-30T16:28:02.769Z,5.47
2017-11-30T16:29:02.772Z,5.46
2017-11-30T16:30:55.931Z,5.34
2017-11-30T16:31:55.926Z,5.33
2017-11-30T16:33:49.086Z,5.15
2017-11-30T16:34:49.080Z,5.04
2017-11-30T16:36:42.240Z,5.01
2017-11-30T16:37:42.248Z,5.05
2017-11-30T16:39:35.701Z,4.79
2017-11-30T16:40:35.464Z,4.89
2017-11-30T16:42:28.823Z,5.08
2017-11-30T16:43:28.625Z,5.05
2017-11-30T16:45:21.782Z,5.02
2017-11-30T16:46:21.784Z,5.07
2017-11-30T16:48:14.991Z,4.95
2017-11-30T16:49:14.955Z,5.00
2017-11-30T16:51:08.154Z,5.18
2017-11-30T16:52:08.101Z,5.19
2017-11-30T16:54:16.631Z,5.36
2017-11-30T16:55:16.619Z,5.19
2017-11-30T16:57:08.798Z,5.28
2017-11-30T16:58:08.929Z,5.25
2017-11-30T17:00:01.983Z,5.29
2017-11-30T17:01:01.974Z,5.25
2017-11-30T17:02:54.118Z,5.33
2017-11-30T17:03:54.130Z,5.28
2017-11-30T17:05:46.286Z,5.31
2017-11-30T17:06:46.343Z,5.40
2017-11-30T17:08:38.463Z,5.38
2017-11-30T17:09:38.471Z,5.40
2017-11-30T17:11:30.728Z,5.46
2017-11-30T17:12:30.671Z,5.52
2017-11-30T17:14:22.837Z,5.41
2017-11-30T17:15:22.846Z,5.40
2017-11-30T17:17:16.054Z,5.38
2017-11-30T17:18:16.023Z,5.29
2017-11-30T17:20:09.170Z,5.28
2017-11-30T17:21:09.178Z,5.29
2017-11-30T17:23:02.354Z,5.33
2017-11-30T17:24:02.400Z,5.38
2017-11-30T17:25:54.576Z,5.04
2017-11-30T17:26:54.575Z,5.07
2017-11-30T17:28:46.741Z,5.13
2017-11-30T17:29:46.738Z,5.13
2017-11-30T17:31:39.920Z,4.86
2017-11-30T17:32:39.929Z,4.75
2017-11-30T17:34:32.112Z,4.49
2017-11-30T17:35:32.107Z,4.38
2017-11-30T17:37:43.825Z,4.27
2017-11-30T17:38:43.825Z,4.40
2017-11-30T17:40:36.988Z,4.49
2017-11-30T17:41:36.989Z,4.52
2017-11-30T17:43:29.186Z,4.67
2017-11-30T17:44:29.193Z,4.79
2017-11-30T17:46:21.390Z,4.79
2017-11-30T17:47:21.370Z,4.84
2017-11-30T17:49:13.555Z,4.87
2017-11-30T17:50:13.573Z,4.89
2017-11-30T17:52:06.734Z,4.92
2017-11-30T17:53:06.729Z,4.82
2017-11-30T17:54:59.915Z,4.90
2017-11-30T17:55:59.924Z,4.97
2017-11-30T17:57:53.202Z,5.00
2017-11-30T17:58:53.077Z,4.94
2017-11-30T18:00:45.241Z,5.02
2017-11-30T18:01:45.248Z,4.97
2017-11-30T18:03:37.484Z,5.10
2017-11-30T18:04:37.467Z,5.02
2017-11-30T18:06:43.186Z,5.05
2017-11-30T18:07:43.189Z,5.08
2017-11-30T18:09:35.384Z,5.22
2017-11-30T18:10:35.355Z,5.20
2017-11-30T18:12:40.353Z,5.20
2017-11-30T18:13:40.334Z,5.19
2017-11-30T18:15:43.419Z,5.15
2017-11-30T18:16:43.444Z,5.15
2017-11-30T18:18:35.874Z,5.13
2017-11-30T18:19:35.639Z,5.18
2017-11-30T18:21:28.786Z,5.15
2017-11-30T18:22:28.786Z,5.12
2017-11-30T18:24:21.066Z,5.22
2017-11-30T18:25:21.021Z,5.10
2017-11-30T18:27:30.470Z,5.07
2017-11-30T18:28:31.401Z,5.07
2017-11-30T18:30:23.673Z,5.20
2017-11-30T18:31:23.671Z,5.16
2017-11-30T18:33:16.797Z,5.07
2017-11-30T18:34:16.816Z,5.08
2017-11-30T18:36:09.948Z,5.18
2017-11-30T18:37:09.950Z,5.04
2017-11-30T18:39:03.110Z,5.05
2017-11-30T18:40:03.180Z,5.15
2017-11-30T18:41:56.282Z,5.05
2017-11-30T18:42:56.404Z,5.07
2017-11-30T18:44:49.559Z,5.10
2017-11-30T18:45:49.503Z,5.12
2017-11-30T18:47:41.680Z,5.07
2017-11-30T18:48:42.548Z,5.07
2017-11-30T18:50:34.851Z,5.10
2017-11-30T18:51:34.855Z,5.10
2017-11-30T18:53:27.065Z,5.10
2017-11-30T18:54:27.069Z,5.08
2017-11-30T18:56:20.251Z,5.05
2017-11-30T18:57:20.245Z,4.97
2017-11-30T18:59:13.402Z,5.07
2017-11-30T19:00:13.420Z,5.05
2017-11-30T19:02:05.626Z,5.01
2017-11-30T19:03:05.634Z,4.97
2017-11-30T19:04:57.863Z,4.95
2017-11-30T19:05:57.867Z,5.01
2017-11-30T19:07:51.025Z,4.95
2017-11-30T19:08:51.025Z,4.94
2017-11-30T19:10:44.177Z,4.94
2017-11-30T19:11:44.184Z,5.00
2017-11-30T19:13:37.319Z,4.97
2017-11-30T19:14:37.340Z,4.89
2017-11-30T19:16:30.498Z,4.89
2017-11-30T19:17:30.502Z,4.90
2017-11-30T19:19:23.639Z,4.84
2017-11-30T19:20:23.669Z,4.74
2017-11-30T19:22:17.543Z,4.83
2017-11-30T19:23:16.827Z,4.74
2017-11-30T19:25:09.973Z,4.79
2017-11-30T19:26:10.011Z,4.74
2017-11-30T19:28:03.246Z,4.74
2017-11-30T19:29:03.150Z,4.83
2017-11-30T19:30:56.281Z,4.75
2017-11-30T19:31:56.302Z,4.78
2017-11-30T19:33:49.462Z,4.75
2017-11-30T19:34:49.453Z,4.75
2017-11-30T19:36:42.611Z,4.71
2017-11-30T19:37:42.621Z,4.79
2017-11-30T19:39:36.035Z,4.83
2017-11-30T19:40:35.764Z,4.76
2017-11-30T19:42:28.916Z,4.76
2017-11-30T19:43:28.961Z,4.78
2017-11-30T19:45:21.133Z,4.78
2017-11-30T19:46:21.115Z,4.78
2017-11-30T19:48:13.340Z,4.60
2017-11-30T19:49:13.324Z,4.53
2017-11-30T19:51:05.687Z,4.76
2017-11-30T19:52:05.668Z,4.78
2017-11-30T19:53:57.918Z,4.76
2017-11-30T19:54:57.942Z,4.66
2017-11-30T19:56:50.168Z,4.70
2017-11-30T19:57:50.146Z,4.68
2017-11-30T19:59:42.399Z,4.76
2017-11-30T20:00:42.412Z,4.82
2017-11-30T20:02:34.686Z,4.82
2017-11-30T20:03:34.655Z,4.75
2017-11-30T20:05:43.261Z,4.79
2017-11-30T20:06:43.260Z,4.75
2017-11-30T20:08:35.411Z,4.79
2017-11-30T20:09:35.417Z,4.76
2017-11-30T20:11:27.858Z,4.66
2017-11-30T20:12:27.589Z,4.66
2017-11-30T20:14:19.777Z,4.83
2017-11-30T20:15:19.781Z,4.82
2017-11-30T20:17:11.969Z,4.63
2017-11-30T20:18:12.008Z,4.75
2017-11-30T20:20:04.142Z,4.63
2017-11-30T20:21:04.150Z,4.60
2017-11-30T20:22:57.290Z,4.57
2017-11-30T20:23:57.310Z,4.67
2017-11-30T20:25:49.487Z,4.74
2017-11-30T20:26:49.508Z,4.79
2017-11-30T20:28:41.698Z,4.86
2017-11-30T20:29:41.701Z,4.83
2017-11-30T20:31:47.432Z,4.84
2017-11-30T20:32:47.463Z,4.83
2017-11-30T20:34:39.627Z,4.79
2017-11-30T20:35:39.619Z,4.83
2017-11-30T20:37:31.800Z,4.84
2017-11-30T20:38:31.805Z,4.74
2017-11-30T20:40:24.008Z,4.86
2017-11-30T20:41:24.011Z,4.79
2017-11-30T20:43:16.174Z,4.78
2017-11-30T20:44:16.180Z,4.84
2017-11-30T20:46:08.375Z,4.83
2017-11-30T20:47:08.371Z,4.79
2017-11-30T20:49:25.781Z,4.83
2017-11-30T20:50:25.786Z,4.71
2017-11-30T20:52:17.984Z,4.79
2017-11-30T20:53:17.984Z,4.83
2017-11-30T20:55:11.194Z,4.87
2017-11-30T20:56:11.193Z,4.74
2017-11-30T20:58:03.347Z,4.82
2017-11-30T20:59:03.311Z,4.79
2017-11-30T21:00:55.491Z,4.82
2017-11-30T21:01:55.576Z,4.86
2017-11-30T21:03:47.674Z,4.94
2017-11-30T21:04:47.682Z,5.08
2017-11-30T21:06:40.139Z,5.01
2017-11-30T21:07:39.896Z,4.90
2017-11-30T21:09:32.158Z,4.92
2017-11-30T21:10:32.126Z,5.04
2017-11-30T21:12:25.356Z,4.97
2017-11-30T21:13:25.388Z,5.18
2017-11-30T21:15:18.535Z,5.12
2017-11-30T21:16:18.551Z,5.01
2017-11-30T21:18:11.718Z,5.05
2017-11-30T21:19:11.730Z,5.05
2017-11-30T21:21:04.873Z,5.01
2017-11-30T21:22:04.868Z,4.98
2017-11-30T21:23:58.012Z,4.98
2017-11-30T21:24:58.008Z,4.98
2017-11-30T21:26:50.206Z,4.94
2017-11-30T21:27:50.223Z,4.86
2017-11-30T21:29:58.946Z,4.90
2017-11-30T21:30:58.931Z,4.74
2017-11-30T21:32:51.134Z,4.83
2017-11-30T21:33:51.129Z,4.75
2017-11-30T21:35:43.333Z,4.76
2017-11-30T21:36:43.312Z,4.78
2017-11-30T21:38:36.473Z,4.71
2017-11-30T21:39:36.471Z,4.64
2017-11-30T21:41:28.617Z,4.66
2017-11-30T21:42:28.617Z,4.67
2017-11-30T21:44:21.791Z,4.67
2017-11-30T21:45:21.785Z,4.61
2017-11-30T21:47:14.942Z,4.79
2017-11-30T21:48:14.950Z,4.76
2017-11-30T21:50:08.143Z,4.79
2017-11-30T21:51:08.149Z,4.76
2017-11-30T21:53:01.298Z,4.74
2017-11-30T21:54:01.326Z,4.76
2017-11-30T21:55:54.509Z,4.57
2017-11-30T21:58:47.627Z,4.57
2017-11-30T21:59:47.650Z,4.61
2017-11-30T22:01:40.794Z,4.52
2017-11-30T22:02:40.790Z,4.60
2017-11-30T22:04:33.932Z,4.60
2017-11-30T22:05:33.941Z,4.49
2017-11-30T22:07:27.125Z,4.61
2017-11-30T22:08:27.102Z,4.53
2017-11-30T22:10:20.267Z,4.74
2017-11-30T22:11:20.268Z,4.60
2017-11-30T22:13:13.448Z,4.76
2017-11-30T22:14:13.421Z,4.74
2017-11-30T22:16:06.579Z,4.78
2017-11-30T22:17:06.591Z,4.75
2017-11-30T22:18:59.739Z,4.71
2017-11-30T22:19:59.748Z,4.76
2017-11-30T22:21:52.896Z,4.78
2017-11-30T22:22:52.905Z,4.74
2017-11-30T22:24:46.135Z,4.71
2017-11-30T22:25:46.157Z,4.63
2017-11-30T22:27:39.283Z,4.82
2017-11-30T22:28:39.302Z,4.75
2017-11-30T22:30:32.505Z,4.79
2017-11-30T22:31:32.490Z,4.64
2017-11-30T22:33:24.680Z,4.66
2017-11-30T22:34:24.691Z,4.70
2017-11-30T22:36:17.853Z,4.75
2017-11-30T22:37:17.855Z,4.71
2017-11-30T22:39:10.981Z,4.79
2017-11-30T22:40:11.007Z,4.76
2017-11-30T22:42:04.176Z,4.83
2017-11-30T22:43:04.170Z,4.79
2017-11-30T22:44:57.315Z,4.76
2017-11-30T22:45:57.441Z,4.71
2017-11-30T22:47:50.485Z,4.83
2017-11-30T22:48:50.585Z,4.78
2017-11-30T22:50:43.618Z,4.75
2017-11-30T22:51:43.662Z,4.74
2017-11-30T22:53:36.847Z,4.79
2017-11-30T22:54:36.810Z,4.75
2017-11-30T22:56:29.970Z,4.83
2017-11-30T22:57:29.985Z,4.78
2017-11-30T22:59:22.186Z,4.71
2017-11-30T23:00:22.180Z,4.71
2017-11-30T23:02:14.447Z,4.61
2017-11-30T23:03:14.458Z,4.53
2017-11-30T23:05:06.673Z,4.58
2017-11-30T23:06:06.695Z,4.58
2017-11-30T23:07:59.006Z,4.61
2017-11-30T23:08:58.914Z,4.61
2017-11-30T23:10:51.176Z,4.53
2017-11-30T23:11:51.171Z,4.56
2017-11-30T23:13:43.340Z,4.61
2017-11-30T23:14:43.346Z,4.63
2017-11-30T23:16:35.649Z,4.61
2017-11-30T23:17:35.702Z,4.56
2017-11-30T23:19:27.883Z,4.63
2017-11-30T23:20:27.882Z,4.61
2017-11-30T23:22:36.612Z,4.60
2017-11-30T23:23:36.623Z,4.49
2017-11-30T23:25:29.827Z,4.50
2017-11-30T23:26:29.837Z,4.56
2017-11-30T23:28:22.340Z,4.49
2017-11-30T23:29:22.387Z,4.49
2017-11-30T23:31:14.347Z,4.50
2017-11-30T23:32:14.348Z,4.46
2017-11-30T23:34:07.513Z,4.52
2017-11-30T23:35:07.509Z,4.45
2017-11-30T23:37:00.669Z,4.53
2017-11-30T23:38:00.670Z,4.56
2017-11-30T23:39:53.848Z,4.46
2017-11-30T23:40:53.830Z,4.50
2017-11-30T23:42:46.991Z,4.50
2017-11-30T23:43:47.002Z,4.50
2017-11-30T23:45:40.151Z,4.48
2017-11-30T23:46:40.136Z,4.49
2017-11-30T23:48:33.319Z,4.58
2017-11-30T23:49:33.311Z,4.53
2017-11-30T23:51:26.095Z,4.46
2017-11-30T23:52:25.604Z,4.56
2017-11-30T23:54:17.765Z,4.61
2017-11-30T23:55:17.786Z,4.60
2017-11-30T23:57:10.025Z,4.56
2017-11-30T23:58:10.013Z,4.52
